createdAt,value
2024-02-02T00:01:07.993Z,8.00
2024-02-02T00:03:35.129Z,8.00
2024-02-02T00:06:02.069Z,8.00
2024-02-02T00:08:28.969Z,8.00
2024-02-02T00:10:57.147Z,7.90
2024-02-02T00:13:24.821Z,7.90
2024-02-02T00:15:54.004Z,7.90
2024-02-02T00:18:21.380Z,7.90
2024-02-02T00:20:48.581Z,7.90
2024-02-02T00:23:15.621Z,7.90
2024-02-02T00:25:42.500Z,7.90
2024-02-02T00:28:09.313Z,7.90
2024-02-02T00:30:38.467Z,7.90
2024-02-02T00:33:05.951Z,7.90
2024-02-02T00:35:33.671Z,7.90
2024-02-02T00:38:00.577Z,7.90
2024-02-02T00:40:27.484Z,7.90
2024-02-02T00:42:54.286Z,7.90
2024-02-02T00:45:22.421Z,7.90
2024-02-02T00:47:49.500Z,7.90
2024-02-02T00:50:16.468Z,7.90
2024-02-02T00:52:43.723Z,7.90
2024-02-02T00:55:10.812Z,7.90
2024-02-02T00:57:37.736Z,8.00
2024-02-02T01:00:07.311Z,8.00
2024-02-02T01:02:34.304Z,8.00
2024-02-02T01:05:01.121Z,7.90
2024-02-02T01:07:27.985Z,8.00
2024-02-02T01:09:54.748Z,7.90
2024-02-02T01:12:21.580Z,7.90
2024-02-02T01:14:48.511Z,7.90
2024-02-02T01:17:15.318Z,7.90
2024-02-02T01:19:42.356Z,8.00
2024-02-02T01:22:09.238Z,8.00
2024-02-02T01:24:36.155Z,8.00
2024-02-02T01:27:03.074Z,8.00
2024-02-02T01:29:30.654Z,8.00
2024-02-02T01:31:57.616Z,8.00
2024-02-02T01:34:24.619Z,8.00
2024-02-02T01:36:53.180Z,8.00
2024-02-02T01:39:20.043Z,8.00
2024-02-02T01:41:47.210Z,8.00
2024-02-02T01:44:14.077Z,8.00
2024-02-02T01:46:40.927Z,8.00
2024-02-02T01:49:08.017Z,8.00
2024-02-02T01:51:35.033Z,8.00
2024-02-02T01:54:02.054Z,8.00
2024-02-02T01:56:28.982Z,8.00
2024-02-02T01:58:56.419Z,8.00
2024-02-02T02:01:23.475Z,8.10
2024-02-02T02:03:50.500Z,8.10
2024-02-02T02:06:17.509Z,8.00
2024-02-02T02:08:44.795Z,8.10
2024-02-02T02:11:11.592Z,8.00
2024-02-02T02:13:38.411Z,8.10
2024-02-02T02:16:05.414Z,8.10
2024-02-02T02:18:32.527Z,8.00
2024-02-02T02:21:04.105Z,8.00
2024-02-02T02:23:44.984Z,8.00
2024-02-02T02:26:11.790Z,8.00
2024-02-02T02:28:38.878Z,7.90
2024-02-02T02:31:06.017Z,8.00
2024-02-02T02:33:37.473Z,7.90
2024-02-02T02:36:04.729Z,7.90
2024-02-02T02:38:31.586Z,7.90
2024-02-02T02:40:58.380Z,7.90
2024-02-02T02:43:25.273Z,7.90
2024-02-02T02:45:52.134Z,7.90
2024-02-02T02:48:19.122Z,7.90
2024-02-02T02:50:46.076Z,8.00
2024-02-02T02:53:12.905Z,8.00
2024-02-02T02:55:39.700Z,7.90
2024-02-02T02:58:06.555Z,7.90
2024-02-02T03:00:33.722Z,7.90
2024-02-02T03:03:01.037Z,7.90
2024-02-02T03:05:31.091Z,7.90
2024-02-02T03:07:58.181Z,7.90
2024-02-02T03:10:28.736Z,8.00
2024-02-02T03:12:56.064Z,8.00
2024-02-02T03:15:23.262Z,7.90
2024-02-02T03:17:50.335Z,7.90
2024-02-02T03:20:17.988Z,7.90
2024-02-02T03:22:44.874Z,7.90
2024-02-02T03:25:12.821Z,7.90
2024-02-02T03:27:39.627Z,7.90
2024-02-02T03:30:08.590Z,7.90
2024-02-02T03:32:35.915Z,7.90
2024-02-02T03:35:02.749Z,7.90
2024-02-02T03:37:30.011Z,7.90
2024-02-02T03:39:56.803Z,7.90
2024-02-02T03:42:23.712Z,7.90
2024-02-02T03:44:50.553Z,7.90
2024-02-02T03:47:17.414Z,7.90
2024-02-02T03:49:44.361Z,7.90
2024-02-02T03:52:11.680Z,7.90
2024-02-02T03:54:38.571Z,7.90
2024-02-02T03:57:05.448Z,7.90
2024-02-02T03:59:32.744Z,7.90
2024-02-02T04:01:59.695Z,7.90
2024-02-02T04:04:26.650Z,7.90
2024-02-02T04:06:56.268Z,7.90
2024-02-02T04:09:23.173Z,7.90
2024-02-02T04:11:50.011Z,7.90
2024-02-02T04:14:16.889Z,7.80
2024-02-02T04:16:43.741Z,7.80
2024-02-02T04:19:16.235Z,7.80
2024-02-02T04:21:43.295Z,7.80
2024-02-02T04:24:11.662Z,7.80
2024-02-02T04:26:38.763Z,7.80
2024-02-02T04:29:05.976Z,7.70
2024-02-02T04:31:32.754Z,7.80
2024-02-02T04:33:59.703Z,7.80
2024-02-02T04:36:26.594Z,7.80
2024-02-02T04:38:53.490Z,7.70
2024-02-02T04:41:20.399Z,7.70
2024-02-02T04:43:47.197Z,7.80
2024-02-02T04:46:14.050Z,7.70
2024-02-02T04:48:41.005Z,7.70
2024-02-02T04:51:07.929Z,7.70
2024-02-02T04:53:34.809Z,7.70
2024-02-02T04:56:01.629Z,7.60
2024-02-02T04:58:28.498Z,7.60
2024-02-02T05:00:55.281Z,7.60
2024-02-02T05:03:22.137Z,7.70
2024-02-02T05:05:48.958Z,7.60
2024-02-02T05:08:16.213Z,7.60
2024-02-02T05:10:43.081Z,7.60
2024-02-02T05:13:09.853Z,7.60
2024-02-02T05:15:37.141Z,7.60
2024-02-02T05:18:05.202Z,7.60
2024-02-02T05:20:32.431Z,7.60
2024-02-02T05:22:59.724Z,7.60
2024-02-02T05:25:27.876Z,7.70
2024-02-02T05:27:54.797Z,7.70
2024-02-02T05:30:21.952Z,7.70
2024-02-02T05:32:48.827Z,7.70
2024-02-02T05:35:15.786Z,7.80
2024-02-02T05:37:42.807Z,7.70
2024-02-02T05:40:09.908Z,7.70
2024-02-02T05:42:36.765Z,7.80
2024-02-02T05:45:03.816Z,7.70
2024-02-02T05:47:30.759Z,7.70
2024-02-02T05:49:57.604Z,7.70
2024-02-02T05:52:24.503Z,7.70
2024-02-02T05:54:51.368Z,7.70
2024-02-02T05:57:18.174Z,7.70
2024-02-02T05:59:45.078Z,7.70
2024-02-02T06:02:11.910Z,7.70
2024-02-02T06:04:38.847Z,7.70
2024-02-02T06:07:05.705Z,7.70
2024-02-02T06:09:32.974Z,7.70
2024-02-02T06:11:59.846Z,7.70
2024-02-02T06:14:29.407Z,7.70
2024-02-02T06:16:56.188Z,7.80
2024-02-02T06:19:23.078Z,7.80
2024-02-02T06:21:50.560Z,7.80
2024-02-02T06:24:17.380Z,7.70
2024-02-02T06:26:44.617Z,7.70
2024-02-02T06:29:11.430Z,7.70
2024-02-02T06:31:38.225Z,7.70
2024-02-02T06:34:05.106Z,7.70
2024-02-02T06:36:32.033Z,7.60
2024-02-02T06:38:59.217Z,7.60
2024-02-02T06:41:26.064Z,7.60
2024-02-02T06:43:52.842Z,7.60
2024-02-02T06:46:20.187Z,7.60
2024-02-02T06:48:47.615Z,7.60
2024-02-02T06:51:14.528Z,7.60
2024-02-02T06:53:41.375Z,7.60
2024-02-02T06:56:27.025Z,7.60
2024-02-02T06:58:54.324Z,7.60
2024-02-02T07:01:21.599Z,7.60
2024-02-02T07:03:49.203Z,7.60
2024-02-02T07:06:16.451Z,7.60
2024-02-02T07:08:43.270Z,7.60
2024-02-02T07:11:12.833Z,7.60
2024-02-02T07:13:50.833Z,7.60
2024-02-02T07:16:31.522Z,7.60
2024-02-02T07:18:58.768Z,7.60
2024-02-02T07:21:32.867Z,7.60
2024-02-02T07:24:00.679Z,7.70
2024-02-02T07:26:31.188Z,7.60
2024-02-02T07:28:59.421Z,7.60
2024-02-02T07:31:37.267Z,7.60
2024-02-02T07:34:21.680Z,7.60
2024-02-02T07:36:48.548Z,7.60
2024-02-02T07:39:29.289Z,7.60
2024-02-02T07:41:56.170Z,7.60
2024-02-02T07:44:23.726Z,7.60
2024-02-02T07:46:50.507Z,7.60
2024-02-02T07:49:17.724Z,7.60
2024-02-02T07:51:44.725Z,7.70
2024-02-02T07:54:12.802Z,7.70
2024-02-02T07:56:39.653Z,7.70
2024-02-02T07:59:06.454Z,7.70
2024-02-02T08:01:34.768Z,7.80
2024-02-02T08:04:02.709Z,7.80
2024-02-02T08:06:30.361Z,7.80
2024-02-02T08:08:58.546Z,7.80
2024-02-02T08:11:26.963Z,7.80
2024-02-02T08:13:53.902Z,7.80
2024-02-02T08:16:20.728Z,7.80
2024-02-02T08:18:47.669Z,7.80
2024-02-02T08:21:14.705Z,7.80
2024-02-02T08:23:42.497Z,7.80
2024-02-02T08:26:09.379Z,7.80
2024-02-02T08:28:45.345Z,7.90
2024-02-02T08:31:18.286Z,7.80
2024-02-02T08:33:45.284Z,7.80
2024-02-02T08:36:12.229Z,7.90
2024-02-02T08:38:39.463Z,7.90
2024-02-02T08:41:06.677Z,7.90
2024-02-02T08:43:33.932Z,7.90
2024-02-02T08:46:11.880Z,8.00
2024-02-02T08:48:47.806Z,8.00
2024-02-02T08:51:24.841Z,8.00
2024-02-02T08:54:06.020Z,8.00
2024-02-02T08:56:32.904Z,8.00
2024-02-02T08:58:59.974Z,8.00
2024-02-02T09:01:41.491Z,8.00
2024-02-02T09:04:34.384Z,8.10
2024-02-02T09:07:01.509Z,8.10
2024-02-02T09:09:28.728Z,8.00
2024-02-02T09:11:57.168Z,8.00
2024-02-02T09:14:26.091Z,8.10
2024-02-02T09:16:55.123Z,8.10
2024-02-02T09:19:39.524Z,8.10
2024-02-02T09:22:13.147Z,8.10
2024-02-02T09:24:43.161Z,8.10
2024-02-02T09:27:15.942Z,8.10
2024-02-02T09:29:48.290Z,8.10
2024-02-02T09:32:16.849Z,8.20
2024-02-02T09:34:46.731Z,8.20
2024-02-02T09:37:32.523Z,8.20
2024-02-02T09:39:59.548Z,8.30
2024-02-02T09:43:03.025Z,8.30
2024-02-02T09:45:45.095Z,8.40
2024-02-02T09:48:57.003Z,8.40
2024-02-02T09:51:45.329Z,8.40
2024-02-02T09:54:36.806Z,8.40
2024-02-02T09:57:30.568Z,8.40
2024-02-02T10:00:03.673Z,8.40
2024-02-02T10:02:44.900Z,8.40
2024-02-02T10:05:20.685Z,8.40
2024-02-02T10:08:12.426Z,8.40
2024-02-02T10:10:57.646Z,8.40
2024-02-02T10:13:48.637Z,8.40
2024-02-02T10:16:34.069Z,8.40
2024-02-02T10:19:14.814Z,8.40
2024-02-02T10:21:59.860Z,8.40
2024-02-02T10:24:46.371Z,8.40
2024-02-02T10:27:39.091Z,8.40
2024-02-02T10:30:28.386Z,8.40
2024-02-02T10:33:31.593Z,8.40
2024-02-02T10:36:31.060Z,8.40
2024-02-02T10:39:27.812Z,8.50
2024-02-02T10:42:25.748Z,8.50
2024-02-02T10:45:17.492Z,8.50
2024-02-02T10:47:53.425Z,8.50
2024-02-02T10:50:26.008Z,8.50
2024-02-02T10:53:00.285Z,8.60
2024-02-02T10:55:51.266Z,8.60
2024-02-02T10:58:48.328Z,8.70
2024-02-02T11:01:18.512Z,8.70
2024-02-02T11:04:12.687Z,8.70
2024-02-02T11:06:47.776Z,8.80
2024-02-02T11:09:40.370Z,8.80
2024-02-02T11:12:17.673Z,8.80
2024-02-02T11:14:55.105Z,8.80
2024-02-02T11:17:35.910Z,8.80
2024-02-02T11:20:50.780Z,8.80
2024-02-02T11:23:26.221Z,8.80
2024-02-02T11:26:15.630Z,8.90
2024-02-02T11:29:13.700Z,8.90
2024-02-02T11:32:05.433Z,8.90
2024-02-02T11:34:56.076Z,8.90
2024-02-02T11:37:45.299Z,9.00
2024-02-02T11:40:13.432Z,9.00
2024-02-02T11:42:41.625Z,9.00
2024-02-02T11:45:11.513Z,9.00
2024-02-02T11:47:47.090Z,9.00
2024-02-02T11:50:18.321Z,9.00
2024-02-02T11:52:53.131Z,9.00
2024-02-02T11:55:27.102Z,9.00
2024-02-02T11:58:03.388Z,9.00
2024-02-02T12:01:06.335Z,9.00
2024-02-02T12:03:55.027Z,9.00
2024-02-02T12:06:22.857Z,9.00
2024-02-02T12:09:13.282Z,9.00
2024-02-02T12:11:44.419Z,9.00
2024-02-02T12:14:33.323Z,9.00
2024-02-02T12:17:01.715Z,9.00
2024-02-02T12:19:29.114Z,9.10
2024-02-02T12:21:56.042Z,9.10
2024-02-02T12:24:23.569Z,9.10
2024-02-02T12:26:51.260Z,9.10
2024-02-02T12:29:18.484Z,9.10
2024-02-02T12:31:45.379Z,9.10
2024-02-02T12:34:13.836Z,9.10
2024-02-02T12:36:40.798Z,9.10
2024-02-02T12:39:08.108Z,9.10
2024-02-02T12:41:36.856Z,9.10
2024-02-02T12:44:05.856Z,9.00
2024-02-02T12:46:44.806Z,9.10
2024-02-02T12:49:12.914Z,9.00
2024-02-02T12:51:40.744Z,9.00
2024-02-02T12:54:11.240Z,9.10
2024-02-02T12:56:38.326Z,9.10
2024-02-02T12:59:06.975Z,9.10
2024-02-02T13:01:34.142Z,9.10
2024-02-02T13:04:01.493Z,9.10
2024-02-02T13:06:29.823Z,9.10
2024-02-02T13:09:20.703Z,9.10
2024-02-02T13:11:48.226Z,9.10
2024-02-02T13:14:27.495Z,9.10
2024-02-02T13:17:12.306Z,9.10
2024-02-02T13:19:45.500Z,9.20
2024-02-02T13:22:22.321Z,9.20
2024-02-02T13:24:54.884Z,9.20
2024-02-02T13:27:25.598Z,9.20
2024-02-02T13:30:03.493Z,9.20
2024-02-02T13:32:34.235Z,9.20
2024-02-02T13:35:01.907Z,9.20
2024-02-02T13:37:37.958Z,9.20
2024-02-02T13:40:11.254Z,9.20
2024-02-02T13:42:40.761Z,9.20
2024-02-02T13:45:12.280Z,9.20
2024-02-02T13:47:40.134Z,9.20
2024-02-02T13:50:13.545Z,9.30
2024-02-02T13:52:40.642Z,9.30
2024-02-02T13:55:07.753Z,9.30
2024-02-02T13:57:34.675Z,9.20
2024-02-02T14:00:01.693Z,9.30
2024-02-02T14:02:28.532Z,9.20
2024-02-02T14:04:58.322Z,9.20
2024-02-02T14:07:25.206Z,9.30
2024-02-02T14:10:03.304Z,9.30
2024-02-02T14:12:31.660Z,9.30
2024-02-02T14:15:03.133Z,9.30
2024-02-02T14:17:30.942Z,9.30
2024-02-02T14:20:05.703Z,9.30
2024-02-02T14:22:36.125Z,9.30
2024-02-02T14:25:04.706Z,9.30
2024-02-02T14:27:38.735Z,9.30
2024-02-02T14:30:20.645Z,9.30
2024-02-02T14:32:48.975Z,9.30
2024-02-02T14:35:17.330Z,9.30
2024-02-02T14:37:44.327Z,9.30
2024-02-02T14:40:12.518Z,9.30
2024-02-02T14:42:39.457Z,9.30
2024-02-02T14:45:07.448Z,9.30
2024-02-02T14:47:35.041Z,9.30
2024-02-02T14:50:03.000Z,9.30
2024-02-02T14:52:30.040Z,9.30
2024-02-02T14:54:56.789Z,9.30
2024-02-02T14:57:23.726Z,9.30
2024-02-02T14:59:52.909Z,9.30
2024-02-02T15:02:20.151Z,9.30
2024-02-02T15:04:47.136Z,9.30
2024-02-02T15:07:14.567Z,9.30
2024-02-02T15:09:46.268Z,9.30
2024-02-02T15:12:13.489Z,9.30
2024-02-02T15:14:40.571Z,9.30
2024-02-02T15:17:07.497Z,9.30
2024-02-02T15:19:34.483Z,9.30
2024-02-02T15:22:01.427Z,9.30
2024-02-02T15:24:28.365Z,9.30
2024-02-02T15:26:55.867Z,9.30
2024-02-02T15:29:23.980Z,9.20
2024-02-02T15:31:50.861Z,9.20
2024-02-02T15:34:17.832Z,9.20
2024-02-02T15:36:45.295Z,9.20
2024-02-02T15:39:19.904Z,9.20
2024-02-02T15:41:54.319Z,9.10
2024-02-02T15:44:21.257Z,9.10
2024-02-02T15:46:48.109Z,9.20
2024-02-02T15:49:15.081Z,9.10
2024-02-02T15:51:42.100Z,9.10
2024-02-02T15:54:10.546Z,9.10
2024-02-02T15:56:37.497Z,9.10
2024-02-02T15:59:04.610Z,9.10
2024-02-02T16:01:31.717Z,9.20
2024-02-02T16:03:59.428Z,9.20
2024-02-02T16:06:26.328Z,9.20
2024-02-02T16:08:53.182Z,9.20
2024-02-02T16:11:20.673Z,9.20
2024-02-02T16:13:47.707Z,9.20
2024-02-02T16:16:14.671Z,9.20
2024-02-02T16:18:41.778Z,9.20
2024-02-02T16:21:08.848Z,9.20
2024-02-02T16:23:36.889Z,9.20
2024-02-02T16:26:04.077Z,9.20
2024-02-02T16:28:31.279Z,9.20
2024-02-02T16:30:58.075Z,9.30
2024-02-02T16:33:25.131Z,9.20
2024-02-02T16:35:52.076Z,9.20
2024-02-02T16:38:19.027Z,9.20
2024-02-02T16:40:45.827Z,9.20
2024-02-02T16:43:12.759Z,9.20
2024-02-02T16:45:41.507Z,9.20
2024-02-02T16:48:09.555Z,9.20
2024-02-02T16:50:38.258Z,9.20
2024-02-02T16:53:06.939Z,9.20
2024-02-02T16:55:33.729Z,9.20
2024-02-02T16:58:00.977Z,9.20
2024-02-02T17:00:27.856Z,9.20
2024-02-02T17:02:54.879Z,9.20
2024-02-02T17:05:21.809Z,9.20
2024-02-02T17:07:49.094Z,9.20
2024-02-02T17:10:15.984Z,9.20
2024-02-02T17:12:43.941Z,9.10
2024-02-02T17:15:11.042Z,9.10
2024-02-02T17:17:40.565Z,9.10
2024-02-02T17:20:09.632Z,9.10
2024-02-02T17:22:38.093Z,9.10
2024-02-02T17:25:06.482Z,9.00
2024-02-02T17:27:33.355Z,9.00
2024-02-02T17:30:00.412Z,9.00
2024-02-02T17:32:27.263Z,9.00
2024-02-02T17:34:54.466Z,9.00
2024-02-02T17:37:21.435Z,9.00
2024-02-02T17:39:48.872Z,9.00
2024-02-02T17:42:15.864Z,9.00
2024-02-02T17:44:42.675Z,9.00
2024-02-02T17:47:09.498Z,9.00
2024-02-02T17:49:45.548Z,8.90
2024-02-02T17:52:16.225Z,8.90
2024-02-02T17:54:43.160Z,8.90
2024-02-02T17:57:10.060Z,9.00
2024-02-02T17:59:36.883Z,9.00
2024-02-02T18:02:03.854Z,9.00
2024-02-02T18:04:30.974Z,8.90
2024-02-02T18:06:58.293Z,9.00
2024-02-02T18:09:25.285Z,8.90
2024-02-02T18:11:52.075Z,8.90
2024-02-02T18:14:24.085Z,8.90
2024-02-02T18:16:51.444Z,8.90
2024-02-02T18:19:18.317Z,8.90
2024-02-02T18:21:45.300Z,8.90
2024-02-02T18:24:12.226Z,8.90
2024-02-02T18:26:39.085Z,8.90
2024-02-02T18:29:05.986Z,8.90
2024-02-02T18:31:32.866Z,8.90
2024-02-02T18:33:59.815Z,8.90
2024-02-02T18:36:26.741Z,8.90
2024-02-02T18:38:53.598Z,8.80
2024-02-02T18:41:20.503Z,8.90
2024-02-02T18:43:47.272Z,8.80
2024-02-02T18:46:14.116Z,8.80
2024-02-02T18:48:41.233Z,8.80
2024-02-02T18:51:16.373Z,8.80
2024-02-02T18:53:43.323Z,8.80
2024-02-02T18:56:10.732Z,8.70
2024-02-02T18:58:42.518Z,8.70
2024-02-02T19:01:26.841Z,8.70
2024-02-02T19:03:54.002Z,8.70
2024-02-02T19:06:21.143Z,8.70
2024-02-02T19:08:48.194Z,8.70
2024-02-02T19:11:16.314Z,8.70
2024-02-02T19:13:44.021Z,8.70
2024-02-02T19:16:21.064Z,8.70
2024-02-02T19:18:48.558Z,8.70
2024-02-02T19:21:23.603Z,8.70
2024-02-02T19:23:51.201Z,8.70
2024-02-02T19:26:18.761Z,8.70
2024-02-02T19:28:45.928Z,8.60
2024-02-02T19:31:23.176Z,8.70
2024-02-02T19:33:50.910Z,8.60
2024-02-02T19:36:30.564Z,8.70
2024-02-02T19:38:59.486Z,8.60
2024-02-02T19:41:32.947Z,8.60
2024-02-02T19:44:00.444Z,8.60
2024-02-02T19:46:29.828Z,8.60
2024-02-02T19:48:58.148Z,8.60
2024-02-02T19:51:27.297Z,8.60
2024-02-02T19:53:55.182Z,8.60
2024-02-02T19:56:22.587Z,8.60
2024-02-02T19:58:50.366Z,8.60
2024-02-02T20:01:21.940Z,8.60
2024-02-02T20:03:50.644Z,8.60
2024-02-02T20:06:19.444Z,8.60
2024-02-02T20:08:48.744Z,8.60
2024-02-02T20:11:17.676Z,8.60
2024-02-02T20:13:45.380Z,8.60
2024-02-02T20:16:17.260Z,8.60
2024-02-02T20:18:45.095Z,8.60
2024-02-02T20:21:16.456Z,8.60
2024-02-02T20:23:45.838Z,8.60
2024-02-02T20:26:18.469Z,8.60
2024-02-02T20:28:52.991Z,8.60
2024-02-02T20:31:20.091Z,8.60
2024-02-02T20:33:48.305Z,8.60
2024-02-02T20:36:19.929Z,8.60
2024-02-02T20:38:46.929Z,8.60
2024-02-02T20:41:14.922Z,8.60
2024-02-02T20:43:42.078Z,8.60
2024-02-02T20:46:15.176Z,8.60
2024-02-02T20:48:42.332Z,8.60
2024-02-02T20:51:10.547Z,8.60
2024-02-02T20:53:38.096Z,8.60
2024-02-02T20:56:05.323Z,8.60
2024-02-02T20:58:32.108Z,8.60
2024-02-02T21:01:00.786Z,8.60
2024-02-02T21:03:28.103Z,8.60
2024-02-02T21:05:59.742Z,8.60
2024-02-02T21:08:27.198Z,8.60
2024-02-02T21:10:53.990Z,8.60
2024-02-02T21:13:21.815Z,8.50
2024-02-02T21:15:50.374Z,8.60
2024-02-02T21:18:17.743Z,8.50
2024-02-02T21:20:50.899Z,8.50
2024-02-02T21:23:19.112Z,8.50
2024-02-02T21:25:46.925Z,8.50
2024-02-02T21:28:14.895Z,8.50
2024-02-02T21:30:44.070Z,8.40
2024-02-02T21:33:11.786Z,8.50
2024-02-02T21:35:38.918Z,8.50
2024-02-02T21:38:05.742Z,8.50
2024-02-02T21:40:32.707Z,8.50
2024-02-02T21:42:59.562Z,8.50
2024-02-02T21:45:26.551Z,8.50
2024-02-02T21:47:53.443Z,8.50
2024-02-02T21:50:20.408Z,8.50
2024-02-02T21:52:47.341Z,8.50
2024-02-02T21:55:14.179Z,8.50
2024-02-02T21:57:41.711Z,8.50
2024-02-02T22:00:09.126Z,8.50
2024-02-02T22:02:36.041Z,8.60
2024-02-02T22:05:03.174Z,8.50
2024-02-02T22:07:30.393Z,8.60
2024-02-02T22:09:57.411Z,8.50
2024-02-02T22:12:24.473Z,8.50
2024-02-02T22:14:51.324Z,8.50
2024-02-02T22:17:19.343Z,8.50
2024-02-02T22:19:46.474Z,8.50
2024-02-02T22:22:13.431Z,8.50
2024-02-02T22:24:41.834Z,8.50
2024-02-02T22:27:10.099Z,8.50
2024-02-02T22:29:37.128Z,8.50
2024-02-02T22:32:04.662Z,8.50
2024-02-02T22:34:31.930Z,8.50
2024-02-02T22:36:58.885Z,8.50
2024-02-02T22:39:25.923Z,8.50
2024-02-02T22:41:52.992Z,8.50
2024-02-02T22:44:19.852Z,8.50
2024-02-02T22:46:46.629Z,8.50
2024-02-02T22:49:13.831Z,8.60
2024-02-02T22:51:47.542Z,8.50
2024-02-02T22:54:15.120Z,8.60
2024-02-02T22:56:42.462Z,8.60
2024-02-02T22:59:09.540Z,8.50
2024-02-02T23:01:36.848Z,8.50
2024-02-02T23:04:04.941Z,8.60
2024-02-02T23:06:32.326Z,8.60
2024-02-02T23:08:59.395Z,8.60
2024-02-02T23:11:26.265Z,8.60
2024-02-02T23:13:53.127Z,8.60
2024-02-02T23:16:20.595Z,8.60
2024-02-02T23:18:48.103Z,8.70
2024-02-02T23:21:15.198Z,8.70
2024-02-02T23:23:43.380Z,8.70
2024-02-02T23:26:13.645Z,8.70
2024-02-02T23:28:41.159Z,8.70
2024-02-02T23:31:09.153Z,8.70
2024-02-02T23:33:36.281Z,8.70
2024-02-02T23:36:03.383Z,8.80
2024-02-02T23:38:30.211Z,8.80
2024-02-02T23:40:57.152Z,8.80
2024-02-02T23:43:24.291Z,8.80
2024-02-02T23:45:51.971Z,8.70
2024-02-02T23:48:19.365Z,8.70
2024-02-02T23:50:46.520Z,8.70
2024-02-02T23:53:13.572Z,8.70
2024-02-02T23:55:40.501Z,8.80
2024-02-02T23:58:07.630Z,8.80
